sensor_id;sensor_type;location;lat;lon;timestamp;pressure;altitude;pressure_sealevel;temperature;humidity
34961;BME280;30789;52.030;7.110;2024-01-30T00:00:23;101914.50;;;7.50;96.73
34961;BME280;30789;52.030;7.110;2024-01-30T00:02:51;101919.06;;;7.46;96.07
34961;BME280;30789;52.030;7.110;2024-01-30T00:05:18;101918.16;;;7.54;96.08
34961;BME280;30789;52.030;7.110;2024-01-30T00:07:44;101923.97;;;7.53;96.19
34961;BME280;30789;52.030;7.110;2024-01-30T00:10:11;101926.47;;;7.46;96.51
34961;BME280;30789;52.030;7.110;2024-01-30T00:12:38;101914.31;;;7.55;96.00
34961;BME280;30789;52.030;7.110;2024-01-30T00:15:04;101911.94;;;7.45;96.78
34961;BME280;30789;52.030;7.110;2024-01-30T00:17:34;101918.38;;;7.49;96.80
34961;BME280;30789;52.030;7.110;2024-01-30T00:20:03;101909.59;;;7.56;96.40
34961;BME280;30789;52.030;7.110;2024-01-30T00:22:31;101909.75;;;7.59;96.24
34961;BME280;30789;52.030;7.110;2024-01-30T00:24:57;101901.06;;;7.57;96.09
34961;BME280;30789;52.030;7.110;2024-01-30T00:27:24;101909.88;;;7.63;96.15
34961;BME280;30789;52.030;7.110;2024-01-30T00:29:51;101912.81;;;7.58;96.50
34961;BME280;30789;52.030;7.110;2024-01-30T00:32:17;101903.13;;;7.60;96.26
34961;BME280;30789;52.030;7.110;2024-01-30T00:34:45;101905.59;;;7.74;95.90
34961;BME280;30789;52.030;7.110;2024-01-30T00:37:13;101905.13;;;7.72;95.74
34961;BME280;30789;52.030;7.110;2024-01-30T00:39:40;101908.34;;;7.74;95.73
34961;BME280;30789;52.030;7.110;2024-01-30T00:42:06;101902.19;;;7.77;95.68
34961;BME280;30789;52.030;7.110;2024-01-30T00:44:34;101897.16;;;7.79;95.58
34961;BME280;30789;52.030;7.110;2024-01-30T00:47:02;101897.47;;;7.77;95.59
34961;BME280;30789;52.030;7.110;2024-01-30T00:49:29;101899.56;;;7.80;95.47
34961;BME280;30789;52.030;7.110;2024-01-30T00:51:55;101896.59;;;7.85;95.26
34961;BME280;30789;52.030;7.110;2024-01-30T00:54:24;101901.75;;;7.87;94.88
34961;BME280;30789;52.030;7.110;2024-01-30T00:56:50;101903.25;;;7.84;95.30
34961;BME280;30789;52.030;7.110;2024-01-30T00:59:17;101898.44;;;7.81;95.04
34961;BME280;30789;52.030;7.110;2024-01-30T01:01:43;101899.34;;;7.85;95.01
34961;BME280;30789;52.030;7.110;2024-01-30T01:04:10;101901.41;;;7.88;94.95
34961;BME280;30789;52.030;7.110;2024-01-30T01:06:36;101897.56;;;7.89;94.55
34961;BME280;30789;52.030;7.110;2024-01-30T01:09:03;101896.53;;;7.94;94.55
34961;BME280;30789;52.030;7.110;2024-01-30T01:11:31;101898.22;;;7.86;94.86
34961;BME280;30789;52.030;7.110;2024-01-30T01:13:57;101893.72;;;7.82;94.93
34961;BME280;30789;52.030;7.110;2024-01-30T01:16:24;101896.69;;;7.77;95.32
34961;BME280;30789;52.030;7.110;2024-01-30T01:18:50;101897.63;;;7.81;95.11
34961;BME280;30789;52.030;7.110;2024-01-30T01:21:17;101896.09;;;7.71;95.03
34961;BME280;30789;52.030;7.110;2024-01-30T01:23:43;101896.97;;;7.63;95.39
34961;BME280;30789;52.030;7.110;2024-01-30T01:26:10;101892.84;;;7.57;95.76
34961;BME280;30789;52.030;7.110;2024-01-30T01:28:39;101895.44;;;7.54;96.12
34961;BME280;30789;52.030;7.110;2024-01-30T01:31:05;101895.97;;;7.47;96.30
34961;BME280;30789;52.030;7.110;2024-01-30T01:33:32;101892.63;;;7.42;96.32
34961;BME280;30789;52.030;7.110;2024-01-30T01:35:59;101887.16;;;7.42;96.72
34961;BME280;30789;52.030;7.110;2024-01-30T01:38:27;101885.41;;;7.37;97.06
34961;BME280;30789;52.030;7.110;2024-01-30T01:40:54;101882.31;;;7.39;97.13
34961;BME280;30789;52.030;7.110;2024-01-30T01:43:21;101885.41;;;7.37;96.83
34961;BME280;30789;52.030;7.110;2024-01-30T01:45:49;101876.88;;;7.30;97.39
34961;BME280;30789;52.030;7.110;2024-01-30T01:48:15;101880.78;;;7.29;97.08
34961;BME280;30789;52.030;7.110;2024-01-30T01:50:42;101881.28;;;7.23;97.66
34961;BME280;30789;52.030;7.110;2024-01-30T01:53:09;101883.56;;;7.21;97.50
34961;BME280;30789;52.030;7.110;2024-01-30T01:55:37;101878.41;;;7.19;97.34
34961;BME280;30789;52.030;7.110;2024-01-30T01:58:04;101871.19;;;7.15;97.88
34961;BME280;30789;52.030;7.110;2024-01-30T02:00:31;101878.81;;;7.09;98.11
34961;BME280;30789;52.030;7.110;2024-01-30T02:03:00;101879.47;;;7.06;98.22
34961;BME280;30789;52.030;7.110;2024-01-30T02:05:26;101876.59;;;7.03;98.51
34961;BME280;30789;52.030;7.110;2024-01-30T02:07:54;101874.25;;;6.92;99.08
34961;BME280;30789;52.030;7.110;2024-01-30T02:10:21;101864.41;;;6.91;99.37
34961;BME280;30789;52.030;7.110;2024-01-30T02:12:48;101871.00;;;6.90;98.73
34961;BME280;30789;52.030;7.110;2024-01-30T02:15:15;101875.03;;;6.93;99.10
34961;BME280;30789;52.030;7.110;2024-01-30T02:17:41;101867.34;;;6.86;99.29
34961;BME280;30789;52.030;7.110;2024-01-30T02:20:10;101866.69;;;6.89;99.28
34961;BME280;30789;52.030;7.110;2024-01-30T02:22:40;101864.94;;;6.85;99.47
34961;BME280;30789;52.030;7.110;2024-01-30T02:25:08;101859.78;;;6.83;99.22
34961;BME280;30789;52.030;7.110;2024-01-30T02:27:34;101857.72;;;6.80;99.63
34961;BME280;30789;52.030;7.110;2024-01-30T02:30:01;101855.97;;;6.76;99.56
34961;BME280;30789;52.030;7.110;2024-01-30T02:32:27;101850.94;;;6.78;99.88
34961;BME280;30789;52.030;7.110;2024-01-30T02:34:54;101840.47;;;6.80;99.34
34961;BME280;30789;52.030;7.110;2024-01-30T02:37:20;101838.06;;;6.78;100.00
34961;BME280;30789;52.030;7.110;2024-01-30T02:39:48;101838.38;;;6.77;100.00
34961;BME280;30789;52.030;7.110;2024-01-30T02:42:15;101842.78;;;6.69;99.90
34961;BME280;30789;52.030;7.110;2024-01-30T02:44:41;101842.16;;;6.64;99.94
34961;BME280;30789;52.030;7.110;2024-01-30T02:47:08;101839.56;;;6.67;100.00
34961;BME280;30789;52.030;7.110;2024-01-30T02:49:34;101843.94;;;6.60;100.00
34961;BME280;30789;52.030;7.110;2024-01-30T02:52:01;101837.97;;;6.58;100.00
34961;BME280;30789;52.030;7.110;2024-01-30T02:54:27;101833.81;;;6.60;100.00
34961;BME280;30789;52.030;7.110;2024-01-30T02:56:57;101834.91;;;6.59;100.00
34961;BME280;30789;52.030;7.110;2024-01-30T02:59:23;101838.78;;;6.58;100.00
34961;BME280;30789;52.030;7.110;2024-01-30T03:01:50;101835.25;;;6.58;100.00
34961;BME280;30789;52.030;7.110;2024-01-30T03:04:16;101829.78;;;6.58;100.00
34961;BME280;30789;52.030;7.110;2024-01-30T03:06:45;101824.16;;;6.54;100.00
34961;BME280;30789;52.030;7.110;2024-01-30T03:09:12;101827.34;;;6.56;99.98
34961;BME280;30789;52.030;7.110;2024-01-30T03:11:38;101820.78;;;6.57;100.00
34961;BME280;30789;52.030;7.110;2024-01-30T03:14:06;101821.75;;;6.53;100.00
34961;BME280;30789;52.030;7.110;2024-01-30T03:16:33;101817.69;;;6.59;100.00
34961;BME280;30789;52.030;7.110;2024-01-30T03:18:59;101816.22;;;6.61;100.00
34961;BME280;30789;52.030;7.110;2024-01-30T03:21:27;101811.25;;;6.55;100.00
34961;BME280;30789;52.030;7.110;2024-01-30T03:23:54;101812.06;;;6.55;100.00
34961;BME280;30789;52.030;7.110;2024-01-30T03:26:20;101806.59;;;6.55;100.00
34961;BME280;30789;52.030;7.110;2024-01-30T03:28:47;101807.53;;;6.59;100.00
34961;BME280;30789;52.030;7.110;2024-01-30T03:31:15;101809.34;;;6.55;100.00
34961;BME280;30789;52.030;7.110;2024-01-30T03:33:42;101810.47;;;6.54;100.00
34961;BME280;30789;52.030;7.110;2024-01-30T03:36:09;101801.13;;;6.55;100.00
34961;BME280;30789;52.030;7.110;2024-01-30T03:38:36;101802.09;;;6.51;100.00
34961;BME280;30789;52.030;7.110;2024-01-30T03:41:02;101796.81;;;6.46;100.00
34961;BME280;30789;52.030;7.110;2024-01-30T03:43:29;101794.72;;;6.43;100.00
34961;BME280;30789;52.030;7.110;2024-01-30T03:45:55;101797.66;;;6.38;100.00
34961;BME280;30789;52.030;7.110;2024-01-30T03:48:24;101799.13;;;6.35;100.00
34961;BME280;30789;52.030;7.110;2024-01-30T03:50:51;101794.59;;;6.39;100.00
34961;BME280;30789;52.030;7.110;2024-01-30T03:53:17;101800.22;;;6.43;100.00
34961;BME280;30789;52.030;7.110;2024-01-30T03:55:44;101793.25;;;6.45;100.00
34961;BME280;30789;52.030;7.110;2024-01-30T03:58:10;101796.81;;;6.46;100.00
34961;BME280;30789;52.030;7.110;2024-01-30T04:00:37;101788.59;;;6.46;100.00
34961;BME280;30789;52.030;7.110;2024-01-30T04:03:04;101787.34;;;6.43;100.00
34961;BME280;30789;52.030;7.110;2024-01-30T04:05:32;101780.72;;;6.44;100.00
34961;BME280;30789;52.030;7.110;2024-01-30T04:07:59;101775.38;;;6.48;100.00
34961;BME280;30789;52.030;7.110;2024-01-30T04:10:26;101778.28;;;6.51;100.00
34961;BME280;30789;52.030;7.110;2024-01-30T04:12:52;101775.53;;;6.51;100.00
34961;BME280;30789;52.030;7.110;2024-01-30T04:15:19;101768.59;;;6.54;99.84
34961;BME280;30789;52.030;7.110;2024-01-30T04:17:46;101770.06;;;6.51;99.99
34961;BME280;30789;52.030;7.110;2024-01-30T04:20:13;101765.84;;;6.54;99.88
34961;BME280;30789;52.030;7.110;2024-01-30T04:22:42;101761.84;;;6.51;100.00
34961;BME280;30789;52.030;7.110;2024-01-30T04:25:09;101765.34;;;6.60;99.73
34961;BME280;30789;52.030;7.110;2024-01-30T04:27:36;101754.81;;;6.62;99.38
34961;BME280;30789;52.030;7.110;2024-01-30T04:30:03;101767.34;;;6.72;99.31
34961;BME280;30789;52.030;7.110;2024-01-30T04:32:29;101766.19;;;6.73;99.16
34961;BME280;30789;52.030;7.110;2024-01-30T04:34:56;101764.88;;;6.79;99.09
34961;BME280;30789;52.030;7.110;2024-01-30T04:37:23;101768.22;;;6.84;98.34
34961;BME280;30789;52.030;7.110;2024-01-30T04:39:51;101763.56;;;6.85;98.41
34961;BME280;30789;52.030;7.110;2024-01-30T04:42:17;101763.25;;;6.78;98.63
34961;BME280;30789;52.030;7.110;2024-01-30T04:44:44;101764.00;;;6.87;99.09
34961;BME280;30789;52.030;7.110;2024-01-30T04:47:11;101765.41;;;6.93;98.47
34961;BME280;30789;52.030;7.110;2024-01-30T04:49:38;101760.88;;;6.97;97.92
34961;BME280;30789;52.030;7.110;2024-01-30T04:52:05;101759.06;;;7.01;97.56
34961;BME280;30789;52.030;7.110;2024-01-30T04:54:31;101752.19;;;7.16;97.19
34961;BME280;30789;52.030;7.110;2024-01-30T04:56:59;101753.31;;;7.15;97.00
34961;BME280;30789;52.030;7.110;2024-01-30T04:59:26;101750.13;;;7.13;97.00
34961;BME280;30789;52.030;7.110;2024-01-30T05:01:52;101750.56;;;7.15;96.62
34961;BME280;30789;52.030;7.110;2024-01-30T05:04:19;101753.31;;;7.15;96.66
34961;BME280;30789;52.030;7.110;2024-01-30T05:06:46;101743.63;;;7.17;96.85
34961;BME280;30789;52.030;7.110;2024-01-30T05:09:12;101748.97;;;7.14;96.72
34961;BME280;30789;52.030;7.110;2024-01-30T05:11:39;101748.44;;;7.20;96.13
34961;BME280;30789;52.030;7.110;2024-01-30T05:14:07;101744.75;;;7.16;96.42
34961;BME280;30789;52.030;7.110;2024-01-30T05:16:34;101747.38;;;7.13;96.64
34961;BME280;30789;52.030;7.110;2024-01-30T05:19:01;101752.97;;;7.16;96.78
34961;BME280;30789;52.030;7.110;2024-01-30T05:21:27;101752.53;;;7.14;96.80
34961;BME280;30789;52.030;7.110;2024-01-30T05:23:54;101753.44;;;7.18;96.50
34961;BME280;30789;52.030;7.110;2024-01-30T05:26:20;101760.63;;;7.11;96.67
34961;BME280;30789;52.030;7.110;2024-01-30T05:28:48;101759.84;;;7.22;96.56
34961;BME280;30789;52.030;7.110;2024-01-30T05:31:16;101761.81;;;7.22;96.36
34961;BME280;30789;52.030;7.110;2024-01-30T05:33:42;101757.13;;;7.22;95.95
34961;BME280;30789;52.030;7.110;2024-01-30T05:36:11;101758.16;;;7.30;96.01
34961;BME280;30789;52.030;7.110;2024-01-30T05:38:38;101764.94;;;7.32;95.77
34961;BME280;30789;52.030;7.110;2024-01-30T05:41:04;101756.34;;;7.22;95.78
34961;BME280;30789;52.030;7.110;2024-01-30T05:43:31;101761.47;;;7.23;95.90
34961;BME280;30789;52.030;7.110;2024-01-30T05:45:57;101757.94;;;7.23;96.03
34961;BME280;30789;52.030;7.110;2024-01-30T05:48:25;101754.25;;;7.19;96.42
34961;BME280;30789;52.030;7.110;2024-01-30T05:50:52;101751.53;;;7.19;96.30
34961;BME280;30789;52.030;7.110;2024-01-30T05:53:18;101749.78;;;7.14;96.44
34961;BME280;30789;52.030;7.110;2024-01-30T05:55:45;101751.25;;;7.12;96.61
34961;BME280;30789;52.030;7.110;2024-01-30T05:58:12;101751.72;;;7.14;96.64
34961;BME280;30789;52.030;7.110;2024-01-30T06:00:38;101743.84;;;7.12;96.55
34961;BME280;30789;52.030;7.110;2024-01-30T06:03:05;101755.81;;;7.08;96.85
34961;BME280;30789;52.030;7.110;2024-01-30T06:05:33;101755.31;;;7.06;97.05
34961;BME280;30789;52.030;7.110;2024-01-30T06:07:59;101755.81;;;7.08;96.93
34961;BME280;30789;52.030;7.110;2024-01-30T06:10:26;101753.66;;;7.13;96.92
34961;BME280;30789;52.030;7.110;2024-01-30T06:12:52;101760.28;;;7.12;96.92
34961;BME280;30789;52.030;7.110;2024-01-30T06:15:19;101759.03;;;7.10;97.21
34961;BME280;30789;52.030;7.110;2024-01-30T06:17:46;101754.53;;;7.05;97.47
34961;BME280;30789;52.030;7.110;2024-01-30T06:20:12;101751.47;;;7.07;97.21
34961;BME280;30789;52.030;7.110;2024-01-30T06:22:40;101756.72;;;7.12;97.40
34961;BME280;30789;52.030;7.110;2024-01-30T06:25:07;101753.19;;;7.11;97.07
34961;BME280;30789;52.030;7.110;2024-01-30T06:27:34;101756.06;;;7.15;96.69
34961;BME280;30789;52.030;7.110;2024-01-30T06:30:01;101748.31;;;7.17;96.85
34961;BME280;30789;52.030;7.110;2024-01-30T06:32:27;101751.19;;;7.20;96.83
34961;BME280;30789;52.030;7.110;2024-01-30T06:34:59;101749.78;;;7.14;97.17
34961;BME280;30789;52.030;7.110;2024-01-30T06:37:26;101752.59;;;7.26;96.70
34961;BME280;30789;52.030;7.110;2024-01-30T06:39:54;101753.69;;;7.25;96.60
34961;BME280;30789;52.030;7.110;2024-01-30T06:42:20;101756.53;;;7.37;95.97
34961;BME280;30789;52.030;7.110;2024-01-30T06:44:47;101756.38;;;7.34;96.21
34961;BME280;30789;52.030;7.110;2024-01-30T06:47:13;101761.66;;;7.39;96.39
34961;BME280;30789;52.030;7.110;2024-01-30T06:49:40;101751.03;;;7.37;96.03
34961;BME280;30789;52.030;7.110;2024-01-30T07:29:07;101772.00;;;7.86;94.45
34961;BME280;30789;52.030;7.110;2024-01-30T07:31:48;101764.91;;;7.97;94.28
34961;BME280;30789;52.030;7.110;2024-01-30T07:34:23;101770.84;;;7.99;93.90
34961;BME280;30789;52.030;7.110;2024-01-30T07:37:04;101763.09;;;8.01;94.11
34961;BME280;30789;52.030;7.110;2024-01-30T07:40:06;101768.25;;;8.03;94.24
34961;BME280;30789;52.030;7.110;2024-01-30T07:49:43;101769.84;;;8.16;93.44
34961;BME280;30789;52.030;7.110;2024-01-30T07:52:21;101776.28;;;8.20;93.38
34961;BME280;30789;52.030;7.110;2024-01-30T07:59:18;101782.34;;;8.25;92.94
34961;BME280;30789;52.030;7.110;2024-01-30T08:04:07;101777.22;;;8.24;92.93
34961;BME280;30789;52.030;7.110;2024-01-30T08:05:25;101777.69;;;8.26;93.26
34961;BME280;30789;52.030;7.110;2024-01-30T08:07:59;101785.78;;;8.34;93.05
34961;BME280;30789;52.030;7.110;2024-01-30T08:10:28;101794.16;;;8.38;92.60
34961;BME280;30789;52.030;7.110;2024-01-30T08:13:03;101788.53;;;8.46;92.69
34961;BME280;30789;52.030;7.110;2024-01-30T08:15:34;101791.19;;;8.43;92.69
34961;BME280;30789;52.030;7.110;2024-01-30T08:18:09;101790.59;;;8.49;92.41
34961;BME280;30789;52.030;7.110;2024-01-30T08:20:40;101796.56;;;8.51;91.99
34961;BME280;30789;52.030;7.110;2024-01-30T08:27:07;101800.59;;;8.66;91.86
34961;BME280;30789;52.030;7.110;2024-01-30T08:50:48;101805.56;;;9.00;90.42
34961;BME280;30789;52.030;7.110;2024-01-30T08:53:15;101799.00;;;9.05;90.47
34961;BME280;30789;52.030;7.110;2024-01-30T08:55:53;101797.63;;;9.11;90.24
34961;BME280;30789;52.030;7.110;2024-01-30T08:58:47;101807.22;;;9.17;90.21
34961;BME280;30789;52.030;7.110;2024-01-30T09:59:49;101812.72;;;10.11;87.11
34961;BME280;30789;52.030;7.110;2024-01-30T10:02:27;101812.44;;;10.16;86.49
34961;BME280;30789;52.030;7.110;2024-01-30T10:04:54;101815.63;;;10.18;86.94
34961;BME280;30789;52.030;7.110;2024-01-30T10:07:23;101820.53;;;10.25;86.85
34961;BME280;30789;52.030;7.110;2024-01-30T10:09:54;101818.88;;;10.36;85.96
34961;BME280;30789;52.030;7.110;2024-01-30T10:12:22;101805.59;;;10.42;85.59
34961;BME280;30789;52.030;7.110;2024-01-30T10:14:53;101818.75;;;10.64;85.19
34961;BME280;30789;52.030;7.110;2024-01-30T10:17:20;101828.25;;;10.66;84.44
34961;BME280;30789;52.030;7.110;2024-01-30T10:23:09;101827.53;;;10.85;83.63
34961;BME280;30789;52.030;7.110;2024-01-30T10:25:42;101828.28;;;11.01;82.75
34961;BME280;30789;52.030;7.110;2024-01-30T10:28:49;101827.09;;;11.17;82.42
34961;BME280;30789;52.030;7.110;2024-01-30T10:32:12;101832.69;;;11.21;82.15
34961;BME280;30789;52.030;7.110;2024-01-30T10:38:23;101842.88;;;11.55;80.65
34961;BME280;30789;52.030;7.110;2024-01-30T10:41:00;101828.72;;;11.37;81.66
34961;BME280;30789;52.030;7.110;2024-01-30T10:43:55;101828.19;;;11.32;81.53
34961;BME280;30789;52.030;7.110;2024-01-30T10:46:55;101829.31;;;11.46;81.40
34961;BME280;30789;52.030;7.110;2024-01-30T10:49:42;101826.91;;;11.45;81.41
34961;BME280;30789;52.030;7.110;2024-01-30T10:52:10;101829.78;;;11.33;82.46
34961;BME280;30789;52.030;7.110;2024-01-30T10:54:46;101825.66;;;11.23;82.18
34961;BME280;30789;52.030;7.110;2024-01-30T10:57:26;101817.38;;;11.23;83.03
34961;BME280;30789;52.030;7.110;2024-01-30T10:59:56;101814.75;;;11.11;84.09
34961;BME280;30789;52.030;7.110;2024-01-30T11:02:43;101821.06;;;11.12;83.73
34961;BME280;30789;52.030;7.110;2024-01-30T11:05:26;101832.66;;;11.02;83.92
34961;BME280;30789;52.030;7.110;2024-01-30T11:08:32;101819.94;;;10.97;84.08
34961;BME280;30789;52.030;7.110;2024-01-30T11:11:09;101830.97;;;10.97;84.68
34961;BME280;30789;52.030;7.110;2024-01-30T11:13:45;101836.75;;;10.92;85.07
34961;BME280;30789;52.030;7.110;2024-01-30T11:16:13;101828.75;;;10.87;85.42
34961;BME280;30789;52.030;7.110;2024-01-30T11:18:54;101822.72;;;10.82;85.61
34961;BME280;30789;52.030;7.110;2024-01-30T11:21:41;101822.47;;;10.87;86.11
34961;BME280;30789;52.030;7.110;2024-01-30T11:24:20;101824.16;;;10.91;85.79
34961;BME280;30789;52.030;7.110;2024-01-30T11:27:30;101819.09;;;11.12;85.80
34961;BME280;30789;52.030;7.110;2024-01-30T11:30:03;101825.72;;;11.27;84.74
34961;BME280;30789;52.030;7.110;2024-01-30T11:32:30;101831.00;;;11.16;84.82
34961;BME280;30789;52.030;7.110;2024-01-30T11:34:58;101828.97;;;11.13;85.51
34961;BME280;30789;52.030;7.110;2024-01-30T11:37:25;101827.00;;;11.14;85.99
34961;BME280;30789;52.030;7.110;2024-01-30T11:39:53;101824.97;;;11.11;86.47
34961;BME280;30789;52.030;7.110;2024-01-30T11:42:23;101832.19;;;11.15;86.14
34961;BME280;30789;52.030;7.110;2024-01-30T11:44:53;101825.06;;;11.14;85.89
34961;BME280;30789;52.030;7.110;2024-01-30T11:47:22;101827.53;;;11.19;86.12
34961;BME280;30789;52.030;7.110;2024-01-30T11:49:49;101831.81;;;11.17;86.09
34961;BME280;30789;52.030;7.110;2024-01-30T11:52:22;101834.47;;;11.13;86.09
34961;BME280;30789;52.030;7.110;2024-01-30T11:54:49;101835.75;;;11.16;86.06
34961;BME280;30789;52.030;7.110;2024-01-30T11:57:15;101837.06;;;11.22;86.38
34961;BME280;30789;52.030;7.110;2024-01-30T11:59:43;101850.91;;;11.25;85.28
34961;BME280;30789;52.030;7.110;2024-01-30T12:02:15;101830.22;;;11.16;85.65
34961;BME280;30789;52.030;7.110;2024-01-30T12:04:43;101838.59;;;11.04;86.54
34961;BME280;30789;52.030;7.110;2024-01-30T12:07:12;101838.81;;;10.95;86.62
34961;BME280;30789;52.030;7.110;2024-01-30T12:09:52;101845.91;;;10.96;86.78
34961;BME280;30789;52.030;7.110;2024-01-30T12:12:18;101850.19;;;10.94;87.14
34961;BME280;30789;52.030;7.110;2024-01-30T12:14:50;101840.75;;;10.95;87.19
34961;BME280;30789;52.030;7.110;2024-01-30T12:17:32;101842.28;;;10.92;87.25
34961;BME280;30789;52.030;7.110;2024-01-30T12:20:03;101840.84;;;10.98;87.29
34961;BME280;30789;52.030;7.110;2024-01-30T12:22:36;101844.06;;;11.00;87.37
34961;BME280;30789;52.030;7.110;2024-01-30T12:25:08;101848.75;;;11.00;87.72
34961;BME280;30789;52.030;7.110;2024-01-30T12:27:35;101844.91;;;11.04;87.20
34961;BME280;30789;52.030;7.110;2024-01-30T12:30:05;101849.84;;;10.95;88.22
34961;BME280;30789;52.030;7.110;2024-01-30T12:32:34;101835.72;;;10.81;89.11
34961;BME280;30789;52.030;7.110;2024-01-30T12:35:02;101844.78;;;10.82;88.53
34961;BME280;30789;52.030;7.110;2024-01-30T12:37:32;101841.47;;;10.92;88.37
34961;BME280;30789;52.030;7.110;2024-01-30T12:39:59;101834.59;;;11.01;87.47
34961;BME280;30789;52.030;7.110;2024-01-30T12:42:29;101838.53;;;11.00;88.02
34961;BME280;30789;52.030;7.110;2024-01-30T12:44:57;101833.44;;;11.02;87.90
34961;BME280;30789;52.030;7.110;2024-01-30T12:47:22;101829.28;;;11.08;88.03
34961;BME280;30789;52.030;7.110;2024-01-30T12:49:49;101825.56;;;11.20;86.75
34961;BME280;30789;52.030;7.110;2024-01-30T12:52:23;101827.28;;;11.09;86.53
34961;BME280;30789;52.030;7.110;2024-01-30T12:54:54;101821.41;;;11.10;87.11
34961;BME280;30789;52.030;7.110;2024-01-30T12:57:22;101828.69;;;11.18;86.76
34961;BME280;30789;52.030;7.110;2024-01-30T12:59:54;101832.75;;;11.24;86.18
34961;BME280;30789;52.030;7.110;2024-01-30T13:02:21;101838.66;;;11.23;86.45
34961;BME280;30789;52.030;7.110;2024-01-30T13:04:48;101835.56;;;11.09;86.76
34961;BME280;30789;52.030;7.110;2024-01-30T13:07:15;101840.63;;;11.07;87.25
34961;BME280;30789;52.030;7.110;2024-01-30T13:09:42;101834.47;;;11.13;87.29
34961;BME280;30789;52.030;7.110;2024-01-30T13:12:09;101836.75;;;11.08;87.64
34961;BME280;30789;52.030;7.110;2024-01-30T13:14:36;101837.38;;;11.01;87.84
34961;BME280;30789;52.030;7.110;2024-01-30T13:17:04;101829.31;;;11.12;87.46
34961;BME280;30789;52.030;7.110;2024-01-30T13:19:31;101839.31;;;11.01;87.83
34961;BME280;30789;52.030;7.110;2024-01-30T13:21:57;101846.34;;;10.98;87.99
34961;BME280;30789;52.030;7.110;2024-01-30T13:24:24;101846.44;;;11.02;88.14
34961;BME280;30789;52.030;7.110;2024-01-30T13:26:52;101837.25;;;11.13;88.03
34961;BME280;30789;52.030;7.110;2024-01-30T13:29:20;101842.28;;;11.27;87.41
34961;BME280;30789;52.030;7.110;2024-01-30T13:31:46;101844.63;;;11.25;86.86
34961;BME280;30789;52.030;7.110;2024-01-30T13:34:14;101845.50;;;11.48;86.50
34961;BME280;30789;52.030;7.110;2024-01-30T13:36:41;101843.66;;;11.36;85.72
34961;BME280;30789;52.030;7.110;2024-01-30T13:39:08;101849.50;;;11.50;85.16
34961;BME280;30789;52.030;7.110;2024-01-30T13:41:35;101836.06;;;11.49;85.04
34961;BME280;30789;52.030;7.110;2024-01-30T13:44:04;101847.38;;;11.44;85.13
34961;BME280;30789;52.030;7.110;2024-01-30T13:46:34;101845.66;;;11.55;84.84
34961;BME280;30789;52.030;7.110;2024-01-30T13:49:00;101851.34;;;12.23;81.24
34961;BME280;30789;52.030;7.110;2024-01-30T13:51:29;101847.88;;;12.06;80.64
34961;BME280;30789;52.030;7.110;2024-01-30T13:53:55;101843.97;;;12.07;80.21
34961;BME280;30789;52.030;7.110;2024-01-30T13:56:22;101843.50;;;11.83;79.40
34961;BME280;30789;52.030;7.110;2024-01-30T13:58:49;101830.66;;;12.36;76.76
34961;BME280;30789;52.030;7.110;2024-01-30T14:01:15;101837.88;;;12.89;75.04
34961;BME280;30789;52.030;7.110;2024-01-30T14:03:42;101849.84;;;12.48;76.26
34961;BME280;30789;52.030;7.110;2024-01-30T14:06:08;101830.91;;;11.85;79.42
34961;BME280;30789;52.030;7.110;2024-01-30T14:08:37;101836.91;;;11.34;82.24
34961;BME280;30789;52.030;7.110;2024-01-30T14:11:04;101829.78;;;11.33;82.69
34961;BME280;30789;52.030;7.110;2024-01-30T14:13:30;101836.41;;;11.47;81.22
34961;BME280;30789;52.030;7.110;2024-01-30T14:15:58;101839.38;;;12.15;78.20
34961;BME280;30789;52.030;7.110;2024-01-30T14:18:24;101844.34;;;11.49;80.84
34961;BME280;30789;52.030;7.110;2024-01-30T14:20:51;101846.56;;;11.24;81.53
34961;BME280;30789;52.030;7.110;2024-01-30T14:23:19;101849.44;;;11.12;81.70
34961;BME280;30789;52.030;7.110;2024-01-30T14:25:48;101848.59;;;11.08;80.71
34961;BME280;30789;52.030;7.110;2024-01-30T14:28:18;101848.13;;;11.06;80.99
34961;BME280;30789;52.030;7.110;2024-01-30T14:30:45;101857.81;;;11.16;81.26
34961;BME280;30789;52.030;7.110;2024-01-30T14:33:12;101849.22;;;11.21;79.71
34961;BME280;30789;52.030;7.110;2024-01-30T14:35:39;101855.19;;;11.23;79.03
34961;BME280;30789;52.030;7.110;2024-01-30T14:38:05;101862.97;;;11.17;77.91
34961;BME280;30789;52.030;7.110;2024-01-30T14:40:32;101858.72;;;11.04;77.75
34961;BME280;30789;52.030;7.110;2024-01-30T14:43:00;101856.41;;;11.06;77.90
34961;BME280;30789;52.030;7.110;2024-01-30T14:45:28;101873.09;;;11.13;76.51
34961;BME280;30789;52.030;7.110;2024-01-30T14:47:57;101873.41;;;11.08;76.52
34961;BME280;30789;52.030;7.110;2024-01-30T14:50:24;101888.34;;;11.07;76.42
34961;BME280;30789;52.030;7.110;2024-01-30T14:52:51;101894.06;;;10.99;76.93
34961;BME280;30789;52.030;7.110;2024-01-30T14:55:18;101894.31;;;10.94;76.69
34961;BME280;30789;52.030;7.110;2024-01-30T14:57:45;101910.72;;;10.87;76.78
34961;BME280;30789;52.030;7.110;2024-01-30T15:00:15;101906.44;;;10.74;78.23
34961;BME280;30789;52.030;7.110;2024-01-30T15:02:41;101902.16;;;10.76;78.07
34961;BME280;30789;52.030;7.110;2024-01-30T15:05:08;101908.13;;;10.63;78.94
34961;BME280;30789;52.030;7.110;2024-01-30T15:07:36;101914.63;;;10.55;79.83
34961;BME280;30789;52.030;7.110;2024-01-30T15:10:03;101918.50;;;10.54;79.88
34961;BME280;30789;52.030;7.110;2024-01-30T15:12:31;101923.13;;;10.34;80.47
34961;BME280;30789;52.030;7.110;2024-01-30T15:14:57;101927.53;;;10.23;80.90
34961;BME280;30789;52.030;7.110;2024-01-30T15:17:25;101929.56;;;10.26;80.68
34961;BME280;30789;52.030;7.110;2024-01-30T15:19:52;101944.25;;;10.02;81.28
34961;BME280;30789;52.030;7.110;2024-01-30T15:22:19;101956.16;;;10.06;80.97
34961;BME280;30789;52.030;7.110;2024-01-30T15:24:45;101947.34;;;10.01;79.87